Time;durP1;ratioP1;P1;durP2;ratioP2;P2;SDS_P1;SDS_P2;PMS_P1;PMS_P2;Temp;Humidity;BMP_temperature;BMP_pressure;BME280_temperature;BME280_humidity;BME280_pressure;Samples;Min_cycle;Max_cycle;Signal;HPM_P1;HPM_P2
2023/08/05 00:02:17;;;;;;;;;;;;;;;;;;5090575;28;1002;-72
2023/08/05 00:04:42;;;;;;;;;;;;;;;;;;5091300;28;928;-72
2023/08/05 00:07:08;;;;;;;;;;;;;;;;;;5090587;28;827;-71
2023/08/05 00:09:33;;;;;;;;;;;;;;;;;;5090907;28;928;-72
2023/08/05 00:11:58;;;;;;;;;;;;;;;;;;5091417;28;895;-72
2023/08/05 00:14:24;;;;;;;;;;;;;;;;;;5091794;28;2029;-71
2023/08/05 00:16:49;;;;;;;;;;;;;;;;;;5092142;28;899;-71
2023/08/05 00:19:14;;;;;;;;;;;;;;;;;;5091081;28;1286;-71
2023/08/05 00:21:39;;;;;;;;;;;;;;;;;;5091714;28;884;-72
2023/08/05 00:24:05;;;;;;;;;;;;;;;;;;5091335;28;887;-72
2023/08/05 00:26:30;;;;;;;;;;;;;;;;;;5091893;28;950;-72
2023/08/05 00:28:55;;;;;;;;;;;;;;;;;;5095977;28;864;-71
2023/08/05 00:31:20;;;;;;;;;;;;;;;;;;5095433;28;801;-71
2023/08/05 00:33:45;;;;;;;;;;;;;;;;;;5095800;28;895;-72
2023/08/05 00:36:11;;;;;;;;;;;;;;;;;;5094996;28;2259;-72
2023/08/05 00:38:36;;;;;;;;;;;;;;;;;;5095906;28;808;-71
2023/08/05 00:41:01;;;;;;;;;;;;;;;;;;5077508;28;1433;-72
2023/08/05 00:43:26;;;;;;;;;;;;;;;;;;5095683;28;848;-72
2023/08/05 00:45:52;;;;;;;;;;;;;;;;;;5077659;28;721;-71
2023/08/05 00:48:17;;;;;;;;;;;;;;;;;;5095073;28;907;-71
2023/08/05 00:50:42;;;;;;;;;;;;;;;;;;5094775;28;1074;-71
2023/08/05 00:53:08;;;;;;;;;;;;;;;;;;5094538;28;875;-71
2023/08/05 00:55:33;;;;;;;;;;;;;;;;;;5094582;28;1898;-71
2023/08/05 00:57:58;;;;;;;;;;;;;;;;;;5094544;28;907;-72
2023/08/05 01:00:24;;;;;;;;;;;;;;;;;;5094101;28;844;-71
2023/08/05 01:02:49;;;;;;;;;;;;;;;;;;5094649;28;907;-71
2023/08/05 01:05:14;;;;;;;;;;;;;;;;;;5094474;28;1041;-71
2023/08/05 01:07:42;;;;;;;;;;;;;;;;;;5094524;28;902;-71
2023/08/05 01:10:08;;;;;;;;;;;;;;;;;;5094215;28;1095;-71
2023/08/05 01:12:33;;;;;;;;;;;;;;;;;;5094983;28;1022;-71
2023/08/05 01:14:58;;;;;;;;;;;;;;;;;;5094728;28;1937;-72
2023/08/05 01:17:24;;;;;;;;;;;;;;;;;;5094434;28;1038;-71
2023/08/05 01:19:50;;;;;;;;;;;;;;;;;;5094386;28;951;-72
2023/08/05 01:22:54;;;;;;;;;;;;;;;;;;5094108;28;915;-72
2023/08/05 01:25:30;;;;;;;;;;;;;;;;;;4991562;28;1225;-71
2023/08/05 01:27:57;;;;;;;;;;;;;;;;;;4991967;28;901;-71
2023/08/05 01:30:23;;;;;;;;;;;;;;;;;;5029939;28;1077;-71
2023/08/05 01:32:49;;;;;;;;;;;;;;;;;;5094060;28;832;-71
2023/08/05 01:35:16;;;;;;;;;;;;;;;;;;5093593;28;1921;-71
2023/08/05 01:37:41;;;;;;;;;;;;;;;;;;5093105;28;903;-71
2023/08/05 01:40:08;;;;;;;;;;;;;;;;;;5093395;28;825;-71
2023/08/05 01:42:33;;;;;;;;;;;;;;;;;;5093465;28;801;-72
2023/08/05 01:44:58;;;;;;;;;;;;;;;;;;5093505;28;908;-72
2023/08/05 01:47:23;;;;;;;;;;;;;;;;;;5093122;28;908;-71
2023/08/05 01:49:48;;;;;;;;;;;;;;;;;;5093042;28;939;-72
2023/08/05 01:52:14;;;;;;;;;;;;;;;;;;5092814;28;931;-72
2023/08/05 01:54:39;;;;;;;;;;;;;;;;;;5093585;28;1957;-71
2023/08/05 01:57:04;;;;;;;;;;;;;;;;;;5093421;28;899;-71
2023/08/05 01:59:29;;;;;;;;;;;;;;;;;;5093196;28;860;-71
2023/08/05 02:01:55;;;;;;;;;;;;;;;;;;5075513;28;990;-71
2023/08/05 02:04:20;;;;;;;;;;;;;;;;;;5093402;28;990;-71
2023/08/05 02:06:45;;;;;;;;;;;;;;;;;;5093548;28;1006;-71
2023/08/05 02:09:10;;;;;;;;;;;;;;;;;;5093216;28;848;-71
2023/08/05 02:11:36;;;;;;;;;;;;;;;;;;5094168;28;981;-71
2023/08/05 02:14:01;;;;;;;;;;;;;;;;;;5093811;28;817;-72
2023/08/05 02:16:26;;;;;;;;;;;;;;;;;;5075637;28;1906;-71
2023/08/05 02:18:52;;;;;;;;;;;;;;;;;;5093085;28;1146;-72
2023/08/05 02:21:17;;;;;;;;;;;;;;;;;;5094151;28;859;-71
2023/08/05 02:23:42;;;;;;;;;;;;;;;;;;5093250;28;860;-71
2023/08/05 02:26:08;;;;;;;;;;;;;;;;;;5093337;28;892;-71
2023/08/05 02:28:33;;;;;;;;;;;;;;;;;;5092907;28;1168;-71
2023/08/05 02:30:58;;;;;;;;;;;;;;;;;;5092632;28;919;-71
2023/08/05 02:33:23;;;;;;;;;;;;;;;;;;5093046;28;881;-71
2023/08/05 02:35:49;;;;;;;;;;;;;;;;;;5092992;28;1890;-71
2023/08/05 02:38:14;;;;;;;;;;;;;;;;;;5092641;28;888;-71
2023/08/05 02:40:39;;;;;;;;;;;;;;;;;;5092651;28;805;-72
2023/08/05 02:43:05;;;;;;;;;;;;;;;;;;5092817;28;899;-71
2023/08/05 02:45:30;;;;;;;;;;;;;;;;;;5092906;28;837;-71
2023/08/05 02:47:55;;;;;;;;;;;;;;;;;;5074859;28;1885;-71
2023/08/05 02:50:21;;;;;;;;;;;;;;;;;;5091768;28;955;-71
2023/08/05 02:52:46;;;;;;;;;;;;;;;;;;5093147;28;880;-71
2023/08/05 02:55:11;;;;;;;;;;;;;;;;;;5092584;28;1909;-71
2023/08/05 02:57:37;;;;;;;;;;;;;;;;;;5092742;28;824;-71
2023/08/05 03:00:03;;;;;;;;;;;;;;;;;;5093425;28;825;-71
2023/08/05 03:02:29;;;;;;;;;;;;;;;;;;5092169;28;909;-72
2023/08/05 03:04:54;;;;;;;;;;;;;;;;;;5092260;28;845;-71
2023/08/05 03:07:19;;;;;;;;;;;;;;;;;;5092158;28;840;-71
2023/08/05 03:09:45;;;;;;;;;;;;;;;;;;5091707;28;988;-71
2023/08/05 03:12:10;;;;;;;;;;;;;;;;;;5091307;28;868;-72
2023/08/05 03:14:35;;;;;;;;;;;;;;;;;;5091839;28;1964;-71
2023/08/05 03:17:00;;;;;;;;;;;;;;;;;;5092657;28;931;-71
2023/08/05 03:19:26;;;;;;;;;;;;;;;;;;5091374;28;1040;-71
2023/08/05 03:21:51;;;;;;;;;;;;;;;;;;5091774;28;1259;-71
2023/08/05 03:24:16;;;;;;;;;;;;;;;;;;5091269;28;883;-71
2023/08/05 03:26:41;;;;;;;;;;;;;;;;;;5091563;28;853;-71
2023/08/05 03:29:07;;;;;;;;;;;;;;;;;;5091215;28;821;-71
2023/08/05 03:31:32;;;;;;;;;;;;;;;;;;5091943;28;1048;-72
2023/08/05 03:33:57;;;;;;;;;;;;;;;;;;5091534;28;994;-71
2023/08/05 03:36:23;;;;;;;;;;;;;;;;;;5091231;28;1913;-71
2023/08/05 03:38:48;;;;;;;;;;;;;;;;;;5091462;28;824;-71
2023/08/05 03:41:13;;;;;;;;;;;;;;;;;;5091187;28;904;-72
2023/08/05 03:43:39;;;;;;;;;;;;;;;;;;5091662;28;851;-71
2023/08/05 03:46:04;;;;;;;;;;;;;;;;;;5092218;28;848;-71
2023/08/05 03:48:30;;;;;;;;;;;;;;;;;;5091097;28;983;-71
2023/08/05 03:50:55;;;;;;;;;;;;;;;;;;5091320;28;1035;-71
2023/08/05 03:53:21;;;;;;;;;;;;;;;;;;5091551;28;998;-71
2023/08/05 03:55:46;;;;;;;;;;;;;;;;;;5091594;28;1969;-71
2023/08/05 03:58:12;;;;;;;;;;;;;;;;;;5091695;28;856;-71
2023/08/05 04:00:43;;;;;;;;;;;;;;;;;;5092429;28;828;-71
2023/08/05 04:03:08;;;;;;;;;;;;;;;;;;5092004;28;792;-71
2023/08/05 04:05:34;;;;;;;;;;;;;;;;;;5091996;28;1103;-72
2023/08/05 04:07:59;;;;;;;;;;;;;;;;;;5091196;28;903;-71
2023/08/05 04:10:24;;;;;;;;;;;;;;;;;;5090787;28;879;-71
2023/08/05 04:12:50;;;;;;;;;;;;;;;;;;5091177;28;1019;-72
2023/08/05 04:15:17;;;;;;;;;;;;;;;;;;5091094;28;1902;-71
2023/08/05 04:17:44;;;;;;;;;;;;;;;;;;5091568;28;896;-71
2023/08/05 04:20:11;;;;;;;;;;;;;;;;;;5090999;28;1064;-71
2023/08/05 04:22:38;;;;;;;;;;;;;;;;;;5091799;28;887;-72
2023/08/05 04:25:03;;;;;;;;;;;;;;;;;;5091230;28;876;-71
2023/08/05 04:27:28;;;;;;;;;;;;;;;;;;5072987;28;1784;-71
2023/08/05 04:29:54;;;;;;;;;;;;;;;;;;5090981;28;940;-71
2023/08/05 04:32:20;;;;;;;;;;;;;;;;;;5091771;28;970;-71
2023/08/05 04:34:45;;;;;;;;;;;;;;;;;;5090676;28;1961;-71
2023/08/05 04:37:21;;;;;;;;;;;;;;;;;;5090694;28;858;-71
2023/08/05 04:39:46;;;;;;;;;;;;;;;;;;5091157;28;816;-71
2023/08/05 04:42:12;;;;;;;;;;;;;;;;;;5090755;28;967;-71
2023/08/05 04:44:39;;;;;;;;;;;;;;;;;;5091488;28;802;-71
2023/08/05 04:47:05;;;;;;;;;;;;;;;;;;5091032;28;832;-71
2023/08/05 04:49:30;;;;;;;;;;;;;;;;;;5090575;28;1090;-71
2023/08/05 04:51:55;;;;;;;;;;;;;;;;;;5090714;28;840;-71
2023/08/05 04:54:22;;;;;;;;;;;;;;;;;;5090317;28;939;-71
2023/08/05 04:56:47;;;;;;;;;;;;;;;;;;5072702;28;904;-71
2023/08/05 04:59:12;;;;;;;;;;;;;;;;;;5090178;28;879;-70
2023/08/05 05:01:38;;;;;;;;;;;;;;;;;;5091030;28;903;-71
2023/08/05 05:04:03;;;;;;;;;;;;;;;;;;5072656;28;896;-71
2023/08/05 05:06:28;;;;;;;;;;;;;;;;;;5090486;28;974;-71
2023/08/05 05:08:53;;;;;;;;;;;;;;;;;;5090574;28;939;-71
2023/08/05 05:11:19;;;;;;;;;;;;;;;;;;5090179;28;1054;-70
2023/08/05 05:13:46;;;;;;;;;;;;;;;;;;5092567;28;896;-71
2023/08/05 05:16:11;;;;;;;;;;;;;;;;;;5093359;28;1909;-70
2023/08/05 05:18:36;;;;;;;;;;;;;;;;;;5094358;28;824;-71
2023/08/05 05:21:02;;;;;;;;;;;;;;;;;;5076024;28;1250;-71
2023/08/05 05:23:27;;;;;;;;;;;;;;;;;;5093694;28;809;-71
2023/08/05 05:25:52;;;;;;;;;;;;;;;;;;5093887;28;916;-71
2023/08/05 05:28:18;;;;;;;;;;;;;;;;;;5075485;28;860;-71
2023/08/05 05:30:43;;;;;;;;;;;;;;;;;;5093655;28;888;-71
2023/08/05 05:33:08;;;;;;;;;;;;;;;;;;5093595;28;1511;-71
2023/08/05 05:35:34;;;;;;;;;;;;;;;;;;5093414;28;1909;-71
2023/08/05 05:37:59;;;;;;;;;;;;;;;;;;5094992;28;864;-71
2023/08/05 05:40:24;;;;;;;;;;;;;;;;;;5094227;28;899;-71
2023/08/05 05:42:49;;;;;;;;;;;;;;;;;;5094864;28;927;-71
2023/08/05 05:45:15;;;;;;;;;;;;;;;;;;5094535;28;844;-71
2023/08/05 05:47:40;;;;;;;;;;;;;;;;;;5076418;28;1473;-71
2023/08/05 05:50:06;;;;;;;;;;;;;;;;;;5094328;28;1027;-72
2023/08/05 05:52:31;;;;;;;;;;;;;;;;;;5059484;28;1236;-72
2023/08/05 05:54:56;;;;;;;;;;;;;;;;;;5094211;28;1966;-72
2023/08/05 05:57:23;;;;;;;;;;;;;;;;;;5094472;28;899;-72
2023/08/05 05:59:48;;;;;;;;;;;;;;;;;;5094855;28;907;-72
2023/08/05 06:02:14;;;;;;;;;;;;;;;;;;5092608;28;1169;-72
2023/08/05 06:04:39;;;;;;;;;;;;;;;;;;5092865;28;1247;-72
2023/08/05 06:07:04;;;;;;;;;;;;;;;;;;5092931;28;1191;-73
2023/08/05 06:09:31;;;;;;;;;;;;;;;;;;5093078;28;1175;-72
2023/08/05 06:11:56;;;;;;;;;;;;;;;;;;5093636;28;921;-72
2023/08/05 06:14:21;;;;;;;;;;;;;;;;;;5093398;28;927;-72
2023/08/05 06:16:47;;;;;;;;;;;;;;;;;;5093797;28;1889;-72
2023/08/05 06:19:12;;;;;;;;;;;;;;;;;;5092026;28;1292;-72
2023/08/05 06:21:37;;;;;;;;;;;;;;;;;;5093476;28;1007;-72
2023/08/05 06:24:02;;;;;;;;;;;;;;;;;;5074593;28;896;-72
2023/08/05 06:26:29;;;;;;;;;;;;;;;;;;5092464;28;827;-72
2023/08/05 06:28:54;;;;;;;;;;;;;;;;;;5074764;28;868;-72
2023/08/05 06:31:19;;;;;;;;;;;;;;;;;;5091960;28;1043;-72
2023/08/05 06:33:45;;;;;;;;;;;;;;;;;;5093273;28;901;-72
2023/08/05 06:36:10;;;;;;;;;;;;;;;;;;5092273;28;1963;-72
2023/08/05 06:38:36;;;;;;;;;;;;;;;;;;5088674;28;1184;-72
2023/08/05 06:41:01;;;;;;;;;;;;;;;;;;5088503;28;1156;-72
2023/08/05 06:43:26;;;;;;;;;;;;;;;;;;5090260;28;1236;-72
2023/08/05 06:45:52;;;;;;;;;;;;;;;;;;5090706;28;1108;-72
2023/08/05 06:48:17;;;;;;;;;;;;;;;;;;5090168;28;1140;-72
2023/08/05 06:50:42;;;;;;;;;;;;;;;;;;5092863;28;824;-72
2023/08/05 06:53:08;;;;;;;;;;;;;;;;;;5092506;28;872;-72
2023/08/05 06:55:33;;;;;;;;;;;;;;;;;;5092507;28;1961;-72
2023/08/05 06:57:58;;;;;;;;;;;;;;;;;;5091925;28;1002;-72
2023/08/05 07:00:23;;;;;;;;;;;;;;;;;;5091243;28;782;-72
2023/08/05 07:02:49;;;;;;;;;;;;;;;;;;5092443;28;942;-72
2023/08/05 07:05:14;;;;;;;;;;;;;;;;;;5091811;28;840;-72
2023/08/05 07:07:39;;;;;;;;;;;;;;;;;;5092379;28;979;-72
2023/08/05 07:10:07;;;;;;;;;;;;;;;;;;5091274;28;943;-72
2023/08/05 07:12:33;;;;;;;;;;;;;;;;;;5091549;28;916;-72
2023/08/05 07:14:59;;;;;;;;;;;;;;;;;;5092049;28;1953;-72
2023/08/05 07:17:25;;;;;;;;;;;;;;;;;;5091684;28;947;-74
2023/08/05 07:19:50;;;;;;;;;;;;;;;;;;5091514;28;1041;-73
2023/08/05 07:22:16;;;;;;;;;;;;;;;;;;5091059;28;836;-73
2023/08/05 07:24:41;;;;;;;;;;;;;;;;;;5092298;28;935;-73
2023/08/05 07:27:06;;;;;;;;;;;;;;;;;;5092317;28;848;-73
2023/08/05 07:29:32;;;;;;;;;;;;;;;;;;5092092;28;833;-73
2023/08/05 07:31:57;;;;;;;;;;;;;;;;;;5093333;28;887;-73
2023/08/05 07:34:23;;;;;;;;;;;;;;;;;;5074154;28;1426;-73
2023/08/05 07:36:49;;;;;;;;;;;;;;;;;;5092357;28;1979;-73
2023/08/05 07:39:14;;;;;;;;;;;;;;;;;;5092033;28;816;-73
2023/08/05 07:41:39;;;;;;;;;;;;;;;;;;5092885;28;900;-73
2023/08/05 07:44:07;;;;;;;;;;;;;;;;;;5092364;28;896;-73
2023/08/05 07:46:36;;;;;;;;;;;;;;;;;;5092433;28;876;-74
2023/08/05 07:49:02;;;;;;;;;;;;;;;;;;5091616;28;860;-73
2023/08/05 07:51:29;;;;;;;;;;;;;;;;;;5092109;28;845;-73
2023/08/05 07:53:55;;;;;;;;;;;;;;;;;;5091752;28;892;-73
2023/08/05 07:56:20;;;;;;;;;;;;;;;;;;5090906;28;1963;-73
2023/08/05 07:58:46;;;;;;;;;;;;;;;;;;5092175;28;844;-73
2023/08/05 08:01:13;;;;;;;;;;;;;;;;;;5073217;28;840;-73
2023/08/05 08:03:40;;;;;;;;;;;;;;;;;;5091173;28;944;-73
2023/08/05 08:06:05;;;;;;;;;;;;;;;;;;5091486;28;899;-73
2023/08/05 08:08:31;;;;;;;;;;;;;;;;;;5090886;28;845;-73
2023/08/05 08:10:56;;;;;;;;;;;;;;;;;;5091703;28;878;-73
2023/08/05 08:13:21;;;;;;;;;;;;;;;;;;5090431;28;1030;-73
2023/08/05 08:15:47;;;;;;;;;;;;;;;;;;5091096;28;1957;-73
2023/08/05 08:18:12;;;;;;;;;;;;;;;;;;5090917;28;832;-73
2023/08/05 08:20:37;;;;;;;;;;;;;;;;;;5091624;28;1235;-71
2023/08/05 08:23:03;;;;;;;;;;;;;;;;;;5090666;28;805;-72
2023/08/05 08:25:28;;;;;;;;;;;;;;;;;;5090942;28;1156;-71
2023/08/05 08:27:53;;;;;;;;;;;;;;;;;;5092027;28;1253;-70
2023/08/05 08:30:18;;;;;;;;;;;;;;;;;;5091331;28;896;-70
2023/08/05 08:32:44;;;;;;;;;;;;;;;;;;5092397;28;888;-70
2023/08/05 08:35:09;;;;;;;;;;;;;;;;;;5091883;28;1973;-71
2023/08/05 08:37:34;;;;;;;;;;;;;;;;;;5091350;28;840;-71
2023/08/05 08:39:59;;;;;;;;;;;;;;;;;;5091403;28;954;-70
2023/08/05 08:42:25;;;;;;;;;;;;;;;;;;5091097;28;900;-71
2023/08/05 08:44:51;;;;;;;;;;;;;;;;;;5092156;28;990;-72
2023/08/05 08:47:16;;;;;;;;;;;;;;;;;;5091286;28;915;-70
2023/08/05 08:49:42;;;;;;;;;;;;;;;;;;5095712;28;1046;-73
2023/08/05 08:52:08;;;;;;;;;;;;;;;;;;5095512;28;1089;-73
2023/08/05 08:54:34;;;;;;;;;;;;;;;;;;5094822;28;1936;-64
2023/08/05 08:56:59;;;;;;;;;;;;;;;;;;5093196;28;1195;-65
2023/08/05 08:59:24;;;;;;;;;;;;;;;;;;5091764;28;1030;-65
2023/08/05 09:01:50;;;;;;;;;;;;;;;;;;5094602;28;900;-65
2023/08/05 09:04:16;;;;;;;;;;;;;;;;;;5094324;28;866;-69
2023/08/05 09:06:42;;;;;;;;;;;;;;;;;;5095151;28;858;-67
2023/08/05 09:09:07;;;;;;;;;;;;;;;;;;5094940;28;860;-65
2023/08/05 09:11:32;;;;;;;;;;;;;;;;;;5093996;28;1080;-65
2023/08/05 09:13:58;;;;;;;;;;;;;;;;;;5094758;28;824;-65
2023/08/05 09:16:24;;;;;;;;;;;;;;;;;;5094466;28;1902;-66
2023/08/05 09:18:53;;;;;;;;;;;;;;;;;;5095692;28;1643;-66
2023/08/05 09:21:26;;;;;;;;;;;;;;;;;;5095061;28;844;-66
2023/08/05 09:23:53;;;;;;;;;;;;;;;;;;5094102;28;984;-65
2023/08/05 09:26:28;;;;;;;;;;;;;;;;;;5093250;28;1191;-66
2023/08/05 09:28:57;;;;;;;;;;;;;;;;;;5093622;28;808;-66
2023/08/05 09:31:22;;;;;;;;;;;;;;;;;;5057935;28;1263;-66
2023/08/05 09:33:48;;;;;;;;;;;;;;;;;;5093507;28;1156;-66
2023/08/05 09:36:14;;;;;;;;;;;;;;;;;;5092871;28;1982;-66
2023/08/05 09:38:40;;;;;;;;;;;;;;;;;;5092744;28;937;-66
2023/08/05 09:41:09;;;;;;;;;;;;;;;;;;5094413;28;859;-66
2023/08/05 09:43:38;;;;;;;;;;;;;;;;;;5093482;28;820;-66
2023/08/05 09:46:05;;;;;;;;;;;;;;;;;;5093345;28;1127;-66
2023/08/05 09:48:34;;;;;;;;;;;;;;;;;;5092416;28;842;-65
2023/08/05 09:51:01;;;;;;;;;;;;;;;;;;5093075;28;959;-65
2023/08/05 09:53:29;;;;;;;;;;;;;;;;;;5092353;28;977;-66
2023/08/05 09:55:54;;;;;;;;;;;;;;;;;;5075696;28;1969;-66
2023/08/05 09:58:20;;;;;;;;;;;;;;;;;;5074052;28;825;-66
2023/08/05 10:00:49;;;;;;;;;;;;;;;;;;5093051;28;811;-66
2023/08/05 10:03:14;;;;;;;;;;;;;;;;;;5092687;28;828;-65
2023/08/05 10:05:43;;;;;;;;;;;;;;;;;;5093196;28;931;-66
2023/08/05 10:08:09;;;;;;;;;;;;;;;;;;5092673;28;816;-66
2023/08/05 10:10:35;;;;;;;;;;;;;;;;;;5092279;28;1103;-66
2023/08/05 10:13:10;;;;;;;;;;;;;;;;;;5093056;28;816;-65
2023/08/05 10:15:36;;;;;;;;;;;;;;;;;;5092032;28;1905;-65
2023/08/05 10:18:02;;;;;;;;;;;;;;;;;;5093084;28;947;-65
2023/08/05 10:20:34;;;;;;;;;;;;;;;;;;5091756;28;1329;-66
2023/08/05 10:23:03;;;;;;;;;;;;;;;;;;5092701;28;927;-66
2023/08/05 10:25:38;;;;;;;;;;;;;;;;;;5092260;28;844;-66
2023/08/05 10:28:04;;;;;;;;;;;;;;;;;;5074565;28;950;-66
2023/08/05 10:30:29;;;;;;;;;;;;;;;;;;5092782;28;939;-66
2023/08/05 10:32:55;;;;;;;;;;;;;;;;;;5092557;28;966;-65
2023/08/05 10:35:31;;;;;;;;;;;;;;;;;;5091846;28;1902;-66
2023/08/05 10:38:10;;;;;;;;;;;;;;;;;;5092773;28;821;-65
2023/08/05 10:41:01;;;;;;;;;;;;;;;;;;5091949;28;887;-65
2023/08/05 10:43:32;;;;;;;;;;;;;;;;;;5092298;28;851;-65
2023/08/05 10:45:58;;;;;;;;;;;;;;;;;;5093231;28;828;-64
2023/08/05 10:48:27;;;;;;;;;;;;;;;;;;5092272;28;805;-65
2023/08/05 10:50:53;;;;;;;;;;;;;;;;;;5074716;28;878;-64
2023/08/05 10:53:20;;;;;;;;;;;;;;;;;;5074067;28;1798;-64
2023/08/05 10:55:46;;;;;;;;;;;;;;;;;;5092458;28;1901;-64
2023/08/05 10:58:12;;;;;;;;;;;;;;;;;;5092794;28;851;-64
2023/08/05 11:00:39;;;;;;;;;;;;;;;;;;5091778;28;965;-64
2023/08/05 11:03:24;;;;;;;;;;;;;;;;;;5091665;28;1003;-65
2023/08/05 11:05:49;;;;;;;;;;;;;;;;;;5074390;28;892;-64
2023/08/05 11:08:21;;;;;;;;;;;;;;;;;;5092856;28;904;-64
2023/08/05 11:10:50;;;;;;;;;;;;;;;;;;5092889;28;881;-65
2023/08/05 11:13:16;;;;;;;;;;;;;;;;;;5092675;28;942;-64
2023/08/05 11:15:41;;;;;;;;;;;;;;;;;;5074543;28;1903;-64
2023/08/05 11:18:07;;;;;;;;;;;;;;;;;;5092618;28;892;-64
2023/08/05 11:20:33;;;;;;;;;;;;;;;;;;5091659;28;1273;-64
2023/08/05 11:22:59;;;;;;;;;;;;;;;;;;5074111;28;795;-64
2023/08/05 11:25:24;;;;;;;;;;;;;;;;;;5092097;28;1085;-64
2023/08/05 11:27:52;;;;;;;;;;;;;;;;;;5091812;28;1364;-64
2023/08/05 11:30:19;;;;;;;;;;;;;;;;;;5090520;28;1191;-64
2023/08/05 11:32:57;;;;;;;;;;;;;;;;;;5054144;28;1881;-64
2023/08/05 11:35:26;;;;;;;;;;;;;;;;;;5088442;28;1914;-64
2023/08/05 11:37:51;;;;;;;;;;;;;;;;;;5089081;28;1141;-64
2023/08/05 11:40:17;;;;;;;;;;;;;;;;;;5089224;28;1207;-65
2023/08/05 11:42:42;;;;;;;;;;;;;;;;;;5089048;28;1151;-64
2023/08/05 11:45:12;;;;;;;;;;;;;;;;;;5091716;28;975;-64
2023/08/05 11:47:38;;;;;;;;;;;;;;;;;;5090866;28;864;-64
2023/08/05 11:50:04;;;;;;;;;;;;;;;;;;5091472;28;994;-65
2023/08/05 11:52:29;;;;;;;;;;;;;;;;;;5072979;28;899;-64
2023/08/05 11:54:56;;;;;;;;;;;;;;;;;;5091118;28;1901;-64
2023/08/05 11:57:22;;;;;;;;;;;;;;;;;;5090471;28;888;-65
2023/08/05 11:59:47;;;;;;;;;;;;;;;;;;5091308;28;891;-64
2023/08/05 12:02:14;;;;;;;;;;;;;;;;;;5092004;28;868;-64
2023/08/05 12:04:49;;;;;;;;;;;;;;;;;;5090975;28;792;-64
2023/08/05 12:07:18;;;;;;;;;;;;;;;;;;5091240;28;1014;-64
2023/08/05 12:09:43;;;;;;;;;;;;;;;;;;5090229;28;951;-64
2023/08/05 12:12:16;;;;;;;;;;;;;;;;;;5091096;28;939;-65
2023/08/05 12:14:42;;;;;;;;;;;;;;;;;;5090480;28;1890;-64
2023/08/05 12:17:07;;;;;;;;;;;;;;;;;;5091257;28;904;-64
2023/08/05 12:19:32;;;;;;;;;;;;;;;;;;5090369;28;1183;-64
2023/08/05 12:21:57;;;;;;;;;;;;;;;;;;5073114;28;674;-64
2023/08/05 12:24:23;;;;;;;;;;;;;;;;;;5094120;28;912;-64
2023/08/05 12:26:48;;;;;;;;;;;;;;;;;;5077781;28;900;-64
2023/08/05 12:29:13;;;;;;;;;;;;;;;;;;5095429;28;896;-64
2023/08/05 12:31:38;;;;;;;;;;;;;;;;;;5093883;28;1187;-64
2023/08/05 12:34:04;;;;;;;;;;;;;;;;;;5095923;28;770;-64
2023/08/05 12:36:29;;;;;;;;;;;;;;;;;;5095116;28;1960;-64
2023/08/05 12:38:55;;;;;;;;;;;;;;;;;;5095679;28;921;-64
2023/08/05 12:41:20;;;;;;;;;;;;;;;;;;5095970;28;995;-64
2023/08/05 12:43:45;;;;;;;;;;;;;;;;;;5095763;28;987;-64
2023/08/05 12:46:10;;;;;;;;;;;;;;;;;;5095664;28;910;-64
2023/08/05 12:48:36;;;;;;;;;;;;;;;;;;5094872;28;975;-64
2023/08/05 12:51:01;;;;;;;;;;;;;;;;;;5095252;28;816;-65
2023/08/05 12:53:26;;;;;;;;;;;;;;;;;;5095041;28;857;-65
2023/08/05 12:55:52;;;;;;;;;;;;;;;;;;5095131;28;1913;-65
2023/08/05 12:58:17;;;;;;;;;;;;;;;;;;5095190;28;1361;-65
2023/08/05 13:00:42;;;;;;;;;;;;;;;;;;5095450;28;828;-65
2023/08/05 13:03:08;;;;;;;;;;;;;;;;;;5095516;28;925;-65
2023/08/05 13:05:33;;;;;;;;;;;;;;;;;;5094799;28;899;-65
2023/08/05 13:07:58;;;;;;;;;;;;;;;;;;5095714;28;1113;-65
2023/08/05 13:10:23;;;;;;;;;;;;;;;;;;5095563;28;1019;-65
2023/08/05 13:12:49;;;;;;;;;;;;;;;;;;5095524;28;859;-65
2023/08/05 13:15:14;;;;;;;;;;;;;;;;;;5095467;28;1909;-65
2023/08/05 13:17:39;;;;;;;;;;;;;;;;;;5095092;28;880;-65
2023/08/05 13:20:05;;;;;;;;;;;;;;;;;;5093931;28;1194;-65
2023/08/05 13:22:30;;;;;;;;;;;;;;;;;;5093828;28;895;-65
2023/08/05 13:24:59;;;;;;;;;;;;;;;;;;5094816;28;840;-65
2023/08/05 13:27:24;;;;;;;;;;;;;;;;;;5093942;28;832;-66
2023/08/05 13:29:49;;;;;;;;;;;;;;;;;;5093806;28;927;-66
2023/08/05 13:32:15;;;;;;;;;;;;;;;;;;5093852;28;897;-66
2023/08/05 13:34:40;;;;;;;;;;;;;;;;;;5092939;28;899;-66
2023/08/05 13:37:05;;;;;;;;;;;;;;;;;;5094356;28;1910;-66
2023/08/05 13:39:31;;;;;;;;;;;;;;;;;;5093194;28;832;-65
2023/08/05 13:41:59;;;;;;;;;;;;;;;;;;5094417;28;904;-66
2023/08/05 13:44:27;;;;;;;;;;;;;;;;;;5093760;28;872;-66
2023/08/05 13:46:53;;;;;;;;;;;;;;;;;;5075853;28;773;-66
2023/08/05 13:49:18;;;;;;;;;;;;;;;;;;5094243;28;1089;-65
2023/08/05 13:51:43;;;;;;;;;;;;;;;;;;5093870;28;869;-66
2023/08/05 13:54:10;;;;;;;;;;;;;;;;;;5093504;28;904;-65
2023/08/05 13:56:36;;;;;;;;;;;;;;;;;;5092568;28;1957;-65
2023/08/05 13:59:01;;;;;;;;;;;;;;;;;;5093594;28;879;-65
2023/08/05 14:01:26;;;;;;;;;;;;;;;;;;5093399;28;801;-65
2023/08/05 14:03:52;;;;;;;;;;;;;;;;;;5093470;28;836;-65
2023/08/05 14:06:17;;;;;;;;;;;;;;;;;;5093781;28;1117;-65
2023/08/05 14:08:42;;;;;;;;;;;;;;;;;;5093198;28;932;-65
2023/08/05 14:11:08;;;;;;;;;;;;;;;;;;5093677;28;1008;-65
2023/08/05 14:13:33;;;;;;;;;;;;;;;;;;5093265;28;888;-66
2023/08/05 14:15:58;;;;;;;;;;;;;;;;;;5093969;28;1961;-65
2023/08/05 14:18:25;;;;;;;;;;;;;;;;;;5094027;28;822;-65
2023/08/05 14:20:52;;;;;;;;;;;;;;;;;;5092597;28;1211;-65
2023/08/05 14:23:17;;;;;;;;;;;;;;;;;;5093112;28;920;-66
2023/08/05 14:25:45;;;;;;;;;;;;;;;;;;5092608;28;912;-65
2023/08/05 14:28:11;;;;;;;;;;;;;;;;;;5093949;28;887;-65
2023/08/05 14:30:37;;;;;;;;;;;;;;;;;;5092802;28;848;-65
2023/08/05 14:33:02;;;;;;;;;;;;;;;;;;5093534;28;867;-65
2023/08/05 14:35:31;;;;;;;;;;;;;;;;;;5093368;28;1967;-65
2023/08/05 14:37:57;;;;;;;;;;;;;;;;;;5093651;28;936;-65
2023/08/05 14:40:22;;;;;;;;;;;;;;;;;;5075120;28;1936;-65
2023/08/05 14:42:47;;;;;;;;;;;;;;;;;;5093617;28;829;-65
2023/08/05 14:45:12;;;;;;;;;;;;;;;;;;5092555;28;910;-65
2023/08/05 14:47:38;;;;;;;;;;;;;;;;;;5092484;28;883;-65
2023/08/05 14:50:03;;;;;;;;;;;;;;;;;;5092017;28;1482;-65
2023/08/05 14:52:28;;;;;;;;;;;;;;;;;;5087548;28;1207;-65
2023/08/05 14:54:54;;;;;;;;;;;;;;;;;;5088695;28;1890;-65
2023/08/05 14:57:19;;;;;;;;;;;;;;;;;;5089909;28;1239;-65
2023/08/05 14:59:44;;;;;;;;;;;;;;;;;;5091692;28;1152;-65
2023/08/05 15:02:10;;;;;;;;;;;;;;;;;;5092853;28;828;-65
2023/08/05 15:04:35;;;;;;;;;;;;;;;;;;5092365;28;813;-65
2023/08/05 15:07:00;;;;;;;;;;;;;;;;;;5092169;28;899;-65
2023/08/05 15:09:25;;;;;;;;;;;;;;;;;;5092472;28;1050;-65
2023/08/05 15:11:50;;;;;;;;;;;;;;;;;;5091908;28;987;-65
2023/08/05 15:14:16;;;;;;;;;;;;;;;;;;5092154;28;982;-65
2023/08/05 15:16:41;;;;;;;;;;;;;;;;;;5091301;28;1866;-65
2023/08/05 15:19:06;;;;;;;;;;;;;;;;;;5091871;28;1003;-65
2023/08/05 15:21:32;;;;;;;;;;;;;;;;;;5072891;28;1319;-65
2023/08/05 15:24:00;;;;;;;;;;;;;;;;;;5091952;28;758;-65
2023/08/05 15:26:25;;;;;;;;;;;;;;;;;;5091816;28;892;-67
2023/08/05 15:28:51;;;;;;;;;;;;;;;;;;5092808;28;1153;-70
2023/08/05 15:31:19;;;;;;;;;;;;;;;;;;5093835;28;936;-73
2023/08/05 15:33:45;;;;;;;;;;;;;;;;;;5058564;28;1174;-74
2023/08/05 15:36:14;;;;;;;;;;;;;;;;;;5092928;28;1977;-71
2023/08/05 15:38:40;;;;;;;;;;;;;;;;;;5092632;28;922;-76
2023/08/05 15:41:05;;;;;;;;;;;;;;;;;;5075036;28;1037;-73
2023/08/05 15:43:32;;;;;;;;;;;;;;;;;;5093240;28;844;-70
2023/08/05 15:45:58;;;;;;;;;;;;;;;;;;5092700;28;954;-69
2023/08/05 15:48:23;;;;;;;;;;;;;;;;;;5090906;28;836;-71
2023/08/05 15:50:48;;;;;;;;;;;;;;;;;;5092826;28;837;-72
2023/08/05 15:53:14;;;;;;;;;;;;;;;;;;5093312;28;899;-71
2023/08/05 15:55:39;;;;;;;;;;;;;;;;;;5093474;28;1898;-70
2023/08/05 15:58:04;;;;;;;;;;;;;;;;;;5092351;28;825;-70
2023/08/05 16:00:30;;;;;;;;;;;;;;;;;;5092718;28;934;-68
2023/08/05 16:02:55;;;;;;;;;;;;;;;;;;5093168;28;1003;-69
2023/08/05 16:05:21;;;;;;;;;;;;;;;;;;5093644;28;1003;-71
2023/08/05 16:07:46;;;;;;;;;;;;;;;;;;5058052;28;1254;-69
2023/08/05 16:10:11;;;;;;;;;;;;;;;;;;5092463;28;847;-70
2023/08/05 16:12:37;;;;;;;;;;;;;;;;;;5092573;28;891;-70
2023/08/05 16:15:03;;;;;;;;;;;;;;;;;;5093086;28;1870;-71
2023/08/05 16:17:30;;;;;;;;;;;;;;;;;;5074608;28;849;-70
2023/08/05 16:19:56;;;;;;;;;;;;;;;;;;5092307;28;1343;-72
2023/08/05 16:22:21;;;;;;;;;;;;;;;;;;5092716;28;908;-71
2023/08/05 16:24:47;;;;;;;;;;;;;;;;;;5073686;28;1207;-73
2023/08/05 16:27:12;;;;;;;;;;;;;;;;;;5093062;28;1003;-72
2023/08/05 16:29:37;;;;;;;;;;;;;;;;;;5092459;28;856;-71
2023/08/05 16:32:03;;;;;;;;;;;;;;;;;;5074394;28;860;-69
2023/08/05 16:34:28;;;;;;;;;;;;;;;;;;5092125;28;770;-73
2023/08/05 16:36:53;;;;;;;;;;;;;;;;;;5092051;28;2023;-71
2023/08/05 16:39:18;;;;;;;;;;;;;;;;;;5073272;28;832;-71
2023/08/05 16:41:44;;;;;;;;;;;;;;;;;;5073179;28;1023;-72
2023/08/05 16:44:09;;;;;;;;;;;;;;;;;;5091587;28;888;-71
2023/08/05 16:46:35;;;;;;;;;;;;;;;;;;5091828;28;895;-71
2023/08/05 16:49:01;;;;;;;;;;;;;;;;;;5091558;28;931;-71
2023/08/05 16:51:26;;;;;;;;;;;;;;;;;;5091206;28;1002;-71
2023/08/05 16:53:52;;;;;;;;;;;;;;;;;;5090877;28;924;-71
2023/08/05 16:56:17;;;;;;;;;;;;;;;;;;5091123;28;1941;-70
2023/08/05 16:58:42;;;;;;;;;;;;;;;;;;5091195;28;864;-70
2023/08/05 17:01:08;;;;;;;;;;;;;;;;;;5090996;28;899;-70
2023/08/05 17:03:33;;;;;;;;;;;;;;;;;;5090811;28;825;-69
2023/08/05 17:05:59;;;;;;;;;;;;;;;;;;5090515;28;857;-69
2023/08/05 17:08:24;;;;;;;;;;;;;;;;;;5091093;28;833;-68